Time;durP1;ratioP1;P1;durP2;ratioP2;P2;SDS_P1;SDS_P2;PMS_P1;PMS_P2;Temp;Humidity;BMP_temperature;BMP_pressure;BME280_temperature;BME280_humidity;BME280_pressure;Samples;Min_cycle;Max_cycle;Signal;HPM_P1;HPM_P2
2023/04/14 00:01:16;;;;;;;16.63;11.00;;;;;;;;;;5073663;28;20427;-81
2023/04/14 00:03:42;;;;;;;13.93;10.60;;;;;;;;;;5068496;28;21002;-82
2023/04/14 00:06:09;;;;;;;13.57;10.88;;;;;;;;;;5073595;28;20427;-82
2023/04/14 00:08:37;;;;;;;15.10;11.20;;;;;;;;;;5067298;28;20431;-82
2023/04/14 00:11:03;;;;;;;15.63;11.55;;;;;;;;;;5068764;28;20514;-82
2023/04/14 00:13:30;;;;;;;14.30;11.27;;;;;;;;;;5068339;28;20419;-82
2023/04/14 00:15:56;;;;;;;15.68;11.38;;;;;;;;;;5076393;28;20422;-82
2023/04/14 00:18:24;;;;;;;12.23;10.30;;;;;;;;;;5067619;28;20430;-82
2023/04/14 00:20:52;;;;;;;13.63;11.27;;;;;;;;;;5066814;28;20790;-82
2023/04/14 00:23:19;;;;;;;15.65;11.05;;;;;;;;;;5065839;28;20458;-82
2023/04/14 00:25:47;;;;;;;13.93;10.93;;;;;;;;;;5065625;28;20441;-82
2023/04/14 00:28:13;;;;;;;14.35;10.82;;;;;;;;;;5070030;28;20428;-82
2023/04/14 00:30:39;;;;;;;13.23;10.17;;;;;;;;;;5071275;28;20491;-82
2023/04/14 00:33:06;;;;;;;10.63;9.40;;;;;;;;;;5072409;28;20424;-82
2023/04/14 00:35:34;;;;;;;13.85;10.50;;;;;;;;;;5072674;28;20427;-82
2023/04/14 00:38:00;;;;;;;13.40;10.65;;;;;;;;;;5064785;28;20446;-82
2023/04/14 00:40:27;;;;;;;10.27;9.13;;;;;;;;;;5071764;28;20434;-82
2023/04/14 00:42:54;;;;;;;11.18;8.90;;;;;;;;;;5073155;28;20426;-82
2023/04/14 00:45:21;;;;;;;13.02;9.68;;;;;;;;;;5069205;28;20433;-82
2023/04/14 00:47:49;;;;;;;11.90;9.43;;;;;;;;;;5070364;28;20408;-82
2023/04/14 00:50:17;;;;;;;13.02;10.43;;;;;;;;;;5074006;28;20426;-82
2023/04/14 00:52:47;;;;;;;12.80;9.55;;;;;;;;;;5073171;28;20428;-82
2023/04/14 00:55:17;;;;;;;12.32;10.40;;;;;;;;;;5074101;28;20498;-82
2023/04/14 00:57:44;;;;;;;13.10;10.52;;;;;;;;;;5069766;28;20432;-82
2023/04/14 01:00:12;;;;;;;14.23;11.32;;;;;;;;;;5064298;28;20423;-82
2023/04/14 01:02:39;;;;;;;13.00;11.52;;;;;;;;;;5070911;28;20420;-81
2023/04/14 01:05:06;;;;;;;13.63;10.52;;;;;;;;;;5071582;28;20424;-82
2023/04/14 01:07:33;;;;;;;12.70;10.98;;;;;;;;;;5071156;28;20423;-82
2023/04/14 01:10:01;;;;;;;14.55;10.75;;;;;;;;;;5071980;28;20446;-82
2023/04/14 01:12:33;;;;;;;14.35;10.57;;;;;;;;;;5068083;28;20432;-82
2023/04/14 01:15:05;;;;;;;13.57;10.77;;;;;;;;;;5056568;28;20457;-81
2023/04/14 01:17:35;;;;;;;15.60;10.70;;;;;;;;;;5067410;28;20404;-82
2023/04/14 01:20:08;;;;;;;12.75;10.30;;;;;;;;;;5065358;28;20494;-82
2023/04/14 01:22:36;;;;;;;12.63;10.68;;;;;;;;;;5068697;28;20417;-82
2023/04/14 01:25:22;;;;;;;13.75;10.98;;;;;;;;;;5072436;28;20436;-82
2023/04/14 01:27:57;;;;;;;12.27;10.10;;;;;;;;;;5069223;28;20424;-82
2023/04/14 01:30:32;;;;;;;12.48;8.98;;;;;;;;;;5065404;28;20437;-82
2023/04/14 01:33:03;;;;;;;9.60;8.60;;;;;;;;;;5072745;28;20423;-82
2023/04/14 01:35:33;;;;;;;10.88;9.07;;;;;;;;;;5071752;28;20925;-82
2023/04/14 01:38:03;;;;;;;10.00;8.88;;;;;;;;;;5066809;28;20426;-82
2023/04/14 01:40:32;;;;;;;11.55;10.10;;;;;;;;;;5076165;28;20435;-82
2023/04/14 01:43:02;;;;;;;11.25;9.05;;;;;;;;;;5071227;28;20427;-82
2023/04/14 01:45:29;;;;;;;9.63;8.63;;;;;;;;;;5066490;28;20770;-82
2023/04/14 01:47:55;;;;;;;11.77;10.40;;;;;;;;;;5067464;28;20761;-82
2023/04/14 01:50:25;;;;;;;14.30;10.73;;;;;;;;;;5069560;28;20467;-82
2023/04/14 01:52:53;;;;;;;15.33;10.80;;;;;;;;;;5070161;28;20420;-82
2023/04/14 01:55:22;;;;;;;12.45;9.70;;;;;;;;;;5068598;28;20422;-82
2023/04/14 01:57:50;;;;;;;10.85;9.50;;;;;;;;;;5068626;28;20417;-82
2023/04/14 02:00:17;;;;;;;10.77;8.77;;;;;;;;;;5068175;28;20455;-81
2023/04/14 02:02:45;;;;;;;10.70;8.07;;;;;;;;;;5066473;28;20488;-82
2023/04/14 02:05:12;;;;;;;11.90;8.80;;;;;;;;;;5068828;28;20436;-82
2023/04/14 02:07:40;;;;;;;11.85;8.98;;;;;;;;;;5067553;28;20424;-82
2023/04/14 02:10:09;;;;;;;12.45;9.70;;;;;;;;;;5066936;28;20429;-82
2023/04/14 02:12:36;;;;;;;14.95;10.90;;;;;;;;;;5068289;28;20426;-82
2023/04/14 02:15:02;;;;;;;9.70;8.70;;;;;;;;;;5069557;28;20459;-82
2023/04/14 02:17:29;;;;;;;13.73;9.95;;;;;;;;;;5064908;28;20419;-82
2023/04/14 02:19:56;;;;;;;13.20;10.20;;;;;;;;;;5063839;28;20424;-82
2023/04/14 02:22:23;;;;;;;12.00;10.80;;;;;;;;;;5064832;28;20404;-82
2023/04/14 02:24:53;;;;;;;14.35;10.70;;;;;;;;;;5075701;28;20941;-82
2023/04/14 02:27:25;;;;;;;15.25;11.07;;;;;;;;;;5071763;28;20433;-82
2023/04/14 02:29:53;;;;;;;13.40;11.00;;;;;;;;;;5070302;28;20442;-82
2023/04/14 02:32:21;;;;;;;16.08;11.70;;;;;;;;;;5068506;28;20915;-82
2023/04/14 02:34:50;;;;;;;15.80;12.57;;;;;;;;;;5070145;28;20852;-82
2023/04/14 02:37:20;;;;;;;14.97;12.23;;;;;;;;;;5064070;28;20412;-82
2023/04/14 02:39:50;;;;;;;15.90;12.38;;;;;;;;;;5066747;28;20419;-82
2023/04/14 02:42:19;;;;;;;15.50;12.18;;;;;;;;;;5069736;28;20410;-82
2023/04/14 02:44:48;;;;;;;12.00;10.77;;;;;;;;;;5070986;28;20986;-82
2023/04/14 02:47:22;;;;;;;11.43;8.68;;;;;;;;;;5070070;28;20421;-82
2023/04/14 02:49:50;;;;;;;10.63;9.10;;;;;;;;;;5069783;28;20427;-82
2023/04/14 02:52:19;;;;;;;14.27;9.82;;;;;;;;;;5073213;28;20476;-81
2023/04/14 02:54:46;;;;;;;11.07;9.98;;;;;;;;;;5067923;28;20442;-82
2023/04/14 02:57:14;;;;;;;12.73;10.55;;;;;;;;;;5068603;28;20423;-82
2023/04/14 02:59:41;;;;;;;15.15;10.90;;;;;;;;;;5067487;28;20423;-82
2023/04/14 03:02:09;;;;;;;14.63;11.30;;;;;;;;;;5070229;28;20431;-82
2023/04/14 03:04:37;;;;;;;14.43;11.10;;;;;;;;;;5065618;28;20434;-82
2023/04/14 03:07:04;;;;;;;15.25;10.77;;;;;;;;;;5065146;28;20484;-82
2023/04/14 03:09:31;;;;;;;14.07;10.80;;;;;;;;;;5065086;28;20432;-82
2023/04/14 03:11:59;;;;;;;13.40;10.88;;;;;;;;;;5066424;28;20480;-82
2023/04/14 03:14:27;;;;;;;13.52;11.60;;;;;;;;;;5068675;28;20431;-82
2023/04/14 03:16:55;;;;;;;12.70;10.95;;;;;;;;;;5066348;28;20929;-82
2023/04/14 03:19:22;;;;;;;12.82;10.50;;;;;;;;;;5067722;28;20413;-82
2023/04/14 03:21:49;;;;;;;14.80;11.27;;;;;;;;;;5070674;28;20928;-83
2023/04/14 03:24:23;;;;;;;15.48;11.00;;;;;;;;;;5064967;28;20421;-82
2023/04/14 03:26:51;;;;;;;13.95;11.15;;;;;;;;;;5066676;28;20924;-82
2023/04/14 03:29:20;;;;;;;14.88;10.80;;;;;;;;;;5059909;28;20431;-82
2023/04/14 03:31:47;;;;;;;11.25;9.95;;;;;;;;;;5069051;28;20439;-82
2023/04/14 03:34:16;;;;;;;11.40;9.10;;;;;;;;;;5066621;28;20428;-82
2023/04/14 03:36:43;;;;;;;12.25;10.00;;;;;;;;;;5048015;28;20931;-82
2023/04/14 03:39:13;;;;;;;13.60;11.23;;;;;;;;;;5066536;28;20433;-82
2023/04/14 03:41:42;;;;;;;12.20;10.50;;;;;;;;;;5066032;28;20863;-82
2023/04/14 03:44:14;;;;;;;13.10;10.70;;;;;;;;;;5062538;28;20431;-82
2023/04/14 03:46:41;;;;;;;15.48;12.43;;;;;;;;;;5065585;28;20430;-82
2023/04/14 03:49:09;;;;;;;11.55;10.35;;;;;;;;;;5067827;28;20431;-81
2023/04/14 03:51:38;;;;;;;14.30;12.70;;;;;;;;;;5066350;28;20497;-82
2023/04/14 03:54:06;;;;;;;13.25;11.60;;;;;;;;;;5062128;28;20774;-82
2023/04/14 03:56:36;;;;;;;14.75;12.07;;;;;;;;;;5066522;28;20968;-81
2023/04/14 03:59:04;;;;;;;16.77;11.88;;;;;;;;;;5064146;28;20466;-82
2023/04/14 04:01:31;;;;;;;14.60;12.10;;;;;;;;;;5069359;28;20843;-82
2023/04/14 04:04:00;;;;;;;15.15;11.63;;;;;;;;;;5068313;28;20419;-82
2023/04/14 04:06:27;;;;;;;13.70;11.38;;;;;;;;;;5066878;28;20911;-82
2023/04/14 04:08:56;;;;;;;13.13;11.80;;;;;;;;;;5065876;28;20432;-82
2023/04/14 04:11:23;;;;;;;15.20;12.95;;;;;;;;;;5071998;28;20427;-82
2023/04/14 04:13:50;;;;;;;14.80;11.00;;;;;;;;;;5069348;28;20414;-82
2023/04/14 04:16:16;;;;;;;18.85;12.32;;;;;;;;;;5073512;28;20425;-82
2023/04/14 04:18:45;;;;;;;13.57;11.48;;;;;;;;;;5068667;28;20473;-82
2023/04/14 04:21:14;;;;;;;13.25;11.13;;;;;;;;;;5066817;28;20920;-82
2023/04/14 04:23:41;;;;;;;15.90;11.48;;;;;;;;;;5067165;28;20426;-82
2023/04/14 04:26:09;;;;;;;13.52;11.32;;;;;;;;;;5069411;28;20430;-82
2023/04/14 04:28:36;;;;;;;12.23;11.02;;;;;;;;;;5072289;28;20411;-82
2023/04/14 04:31:04;;;;;;;12.40;10.45;;;;;;;;;;5066979;28;20453;-82
2023/04/14 04:33:31;;;;;;;14.27;10.82;;;;;;;;;;5067354;28;20943;-81
2023/04/14 04:35:57;;;;;;;12.52;10.57;;;;;;;;;;5071304;28;20825;-81
2023/04/14 04:38:24;;;;;;;13.32;10.90;;;;;;;;;;5067044;28;20438;-82
2023/04/14 04:40:50;;;;;;;14.48;11.70;;;;;;;;;;5074315;28;20486;-82
2023/04/14 04:43:19;;;;;;;18.70;13.00;;;;;;;;;;5063912;28;20925;-82
2023/04/14 04:45:50;;;;;;;15.73;12.37;;;;;;;;;;5070087;28;20469;-82
2023/04/14 04:48:16;;;;;;;14.88;12.18;;;;;;;;;;5071285;28;20465;-80
2023/04/14 04:50:42;;;;;;;13.77;11.73;;;;;;;;;;5070683;28;20505;-82
2023/04/14 04:53:11;;;;;;;12.35;11.05;;;;;;;;;;5068226;28;20427;-82
2023/04/14 04:55:37;;;;;;;14.77;12.18;;;;;;;;;;5056888;28;20468;-82
2023/04/14 04:58:03;;;;;;;17.90;13.15;;;;;;;;;;5062794;28;20943;-82
2023/04/14 05:00:31;;;;;;;17.33;12.90;;;;;;;;;;5065656;28;20441;-82
2023/04/14 05:02:58;;;;;;;17.63;13.70;;;;;;;;;;5068939;28;20485;-81
2023/04/14 05:05:24;;;;;;;17.07;14.00;;;;;;;;;;5072009;28;20436;-82
2023/04/14 05:07:51;;;;;;;16.70;13.73;;;;;;;;;;5071810;28;20499;-81
2023/04/14 05:10:18;;;;;;;16.77;12.90;;;;;;;;;;5066148;28;20478;-81
2023/04/14 05:12:44;;;;;;;16.70;12.90;;;;;;;;;;5067182;28;20415;-82
2023/04/14 05:15:11;;;;;;;15.93;13.30;;;;;;;;;;5073487;28;20410;-81
2023/04/14 05:17:39;;;;;;;17.55;12.95;;;;;;;;;;5066421;28;20425;-81
2023/04/14 05:20:06;;;;;;;17.88;14.25;;;;;;;;;;5071694;28;20444;-82
2023/04/14 05:22:32;;;;;;;18.25;13.18;;;;;;;;;;5062669;28;20415;-82
2023/04/14 05:24:58;;;;;;;13.77;10.77;;;;;;;;;;5066447;28;20427;-82
2023/04/14 05:27:25;;;;;;;16.05;11.65;;;;;;;;;;5069748;28;20408;-81
2023/04/14 05:29:51;;;;;;;13.68;11.20;;;;;;;;;;5065988;28;20431;-82
2023/04/14 05:32:18;;;;;;;14.95;12.07;;;;;;;;;;5068353;28;20902;-82
2023/04/14 05:34:46;;;;;;;14.25;12.10;;;;;;;;;;5064748;28;20428;-82
2023/04/14 05:37:12;;;;;;;13.75;11.57;;;;;;;;;;5065251;28;20455;-78
2023/04/14 05:39:38;;;;;;;13.93;11.00;;;;;;;;;;5068184;28;20439;-79
2023/04/14 05:42:05;;;;;;;13.60;11.60;;;;;;;;;;5068454;28;20805;-79
2023/04/14 05:44:31;;;;;;;15.02;12.50;;;;;;;;;;5067001;28;20421;-81
2023/04/14 05:46:58;;;;;;;16.55;12.00;;;;;;;;;;5071986;28;20490;-81
2023/04/14 05:49:24;;;;;;;14.13;12.32;;;;;;;;;;5061774;28;20435;-81
2023/04/14 05:51:54;;;;;;;15.75;13.38;;;;;;;;;;5070905;28;20423;-81
2023/04/14 05:54:20;;;;;;;15.27;13.68;;;;;;;;;;5069435;28;20424;-81
2023/04/14 05:56:47;;;;;;;18.10;13.60;;;;;;;;;;5069805;28;20440;-80
2023/04/14 05:59:15;;;;;;;19.38;14.50;;;;;;;;;;5069702;28;20458;-80
2023/04/14 06:01:41;;;;;;;15.20;13.60;;;;;;;;;;5069124;28;20430;-81
2023/04/14 06:04:07;;;;;;;17.58;14.25;;;;;;;;;;5066195;28;20774;-80
2023/04/14 06:06:34;;;;;;;17.25;14.60;;;;;;;;;;5070666;28;20418;-79
2023/04/14 06:09:02;;;;;;;19.10;15.73;;;;;;;;;;5071136;28;20419;-79
2023/04/14 06:11:29;;;;;;;20.95;17.38;;;;;;;;;;5066610;28;20420;-80
2023/04/14 06:13:55;;;;;;;21.35;17.55;;;;;;;;;;5068807;28;20998;-80
2023/04/14 06:16:22;;;;;;;24.63;18.08;;;;;;;;;;5064007;28;20416;-80
2023/04/14 06:18:48;;;;;;;24.35;18.58;;;;;;;;;;5066119;28;20435;-80
2023/04/14 06:21:14;;;;;;;25.48;18.15;;;;;;;;;;5067039;28;20436;-80
2023/04/14 06:23:41;;;;;;;28.33;21.00;;;;;;;;;;5069619;28;20435;-80
2023/04/14 06:26:09;;;;;;;35.47;22.48;;;;;;;;;;5069768;28;20435;-80
2023/04/14 06:28:35;;;;;;;29.73;20.73;;;;;;;;;;5072465;28;20472;-80
2023/04/14 06:31:01;;;;;;;27.67;20.60;;;;;;;;;;5069446;28;20433;-80
2023/04/14 06:33:28;;;;;;;28.90;20.60;;;;;;;;;;5063179;28;20438;-80
2023/04/14 06:35:56;;;;;;;27.97;19.23;;;;;;;;;;5066149;28;20838;-80
2023/04/14 06:38:23;;;;;;;29.98;21.88;;;;;;;;;;5071914;28;20419;-80
2023/04/14 06:40:50;;;;;;;30.73;19.98;;;;;;;;;;5069440;28;20414;-80
2023/04/14 06:43:18;;;;;;;23.35;18.27;;;;;;;;;;5069451;28;20419;-80
2023/04/14 06:45:45;;;;;;;22.08;17.10;;;;;;;;;;5067902;28;20446;-80
2023/04/14 06:48:12;;;;;;;24.20;16.38;;;;;;;;;;5073033;28;20499;-80
2023/04/14 06:50:38;;;;;;;19.42;16.02;;;;;;;;;;5066129;28;20426;-81
2023/04/14 06:53:06;;;;;;;20.88;16.50;;;;;;;;;;5068827;28;20431;-80
2023/04/14 06:55:34;;;;;;;21.30;15.43;;;;;;;;;;5069787;28;20411;-78
2023/04/14 06:58:01;;;;;;;17.83;14.68;;;;;;;;;;5071676;28;21091;-79
2023/04/14 07:00:28;;;;;;;18.40;13.18;;;;;;;;;;5072310;28;20434;-79
2023/04/14 07:02:55;;;;;;;17.02;12.40;;;;;;;;;;5067261;28;20781;-79
2023/04/14 07:05:21;;;;;;;15.25;11.60;;;;;;;;;;5069439;28;20419;-79
2023/04/14 07:07:48;;;;;;;14.95;10.63;;;;;;;;;;5065857;28;20423;-80
2023/04/14 07:10:15;;;;;;;14.27;11.77;;;;;;;;;;5066291;28;20774;-79
2023/04/14 07:12:41;;;;;;;14.00;10.65;;;;;;;;;;5063644;28;20429;-80
2023/04/14 07:15:08;;;;;;;14.07;9.32;;;;;;;;;;5064153;28;20417;-79
2023/04/14 07:17:36;;;;;;;15.83;10.30;;;;;;;;;;5070607;28;20415;-80
2023/04/14 07:20:06;;;;;;;14.27;9.90;;;;;;;;;;5057771;28;21157;-80
2023/04/14 07:22:33;;;;;;;15.15;9.43;;;;;;;;;;5063420;28;21009;-81
2023/04/14 07:24:59;;;;;;;17.23;9.27;;;;;;;;;;5070794;28;20442;-79
2023/04/14 07:27:27;;;;;;;11.43;8.45;;;;;;;;;;5071957;28;20423;-79
2023/04/14 07:29:54;;;;;;;11.40;7.85;;;;;;;;;;5069113;28;20935;-80
2023/04/14 07:32:20;;;;;;;13.63;7.60;;;;;;;;;;5066349;28;20424;-79
2023/04/14 07:34:48;;;;;;;12.43;8.00;;;;;;;;;;5070771;28;20408;-80
2023/04/14 07:37:15;;;;;;;9.57;7.03;;;;;;;;;;5058468;28;20432;-81
2023/04/14 07:39:41;;;;;;;12.38;7.43;;;;;;;;;;5068852;28;20411;-81
2023/04/14 07:42:08;;;;;;;13.32;6.50;;;;;;;;;;5069712;28;20429;-80
2023/04/14 07:44:34;;;;;;;7.30;5.90;;;;;;;;;;5069032;28;20420;-82
2023/04/14 07:47:00;;;;;;;8.82;5.15;;;;;;;;;;5069776;28;20427;-81
2023/04/14 07:49:27;;;;;;;7.03;4.50;;;;;;;;;;5073246;28;20423;-79
2023/04/14 07:51:55;;;;;;;5.70;3.47;;;;;;;;;;5065990;28;20427;-81
2023/04/14 07:54:22;;;;;;;7.27;3.77;;;;;;;;;;5068404;28;20921;-79
2023/04/14 07:56:48;;;;;;;7.35;4.22;;;;;;;;;;5071216;28;20438;-79
2023/04/14 07:59:15;;;;;;;5.47;3.60;;;;;;;;;;5064207;28;20465;-81
2023/04/14 08:01:41;;;;;;;4.53;4.00;;;;;;;;;;5066901;28;20423;-81
2023/04/14 08:04:07;;;;;;;8.85;4.53;;;;;;;;;;5071036;28;20427;-81
2023/04/14 08:06:34;;;;;;;9.85;5.35;;;;;;;;;;5069399;28;20425;-81
2023/04/14 08:09:02;;;;;;;8.25;5.85;;;;;;;;;;5068652;28;20433;-82
2023/04/14 08:11:28;;;;;;;10.15;6.57;;;;;;;;;;5066012;28;20986;-81
2023/04/14 08:13:54;;;;;;;13.80;6.68;;;;;;;;;;5069993;28;20943;-81
2023/04/14 08:16:21;;;;;;;10.60;6.45;;;;;;;;;;5060676;28;20480;-80
2023/04/14 08:18:48;;;;;;;9.93;6.30;;;;;;;;;;5066915;28;20807;-81
2023/04/14 08:21:15;;;;;;;10.20;6.43;;;;;;;;;;5073547;28;20427;-81
2023/04/14 08:23:41;;;;;;;10.38;7.10;;;;;;;;;;5074309;28;20422;-81
2023/04/14 08:26:10;;;;;;;8.87;6.93;;;;;;;;;;5073600;28;20423;-81
2023/04/14 08:28:36;;;;;;;12.48;7.95;;;;;;;;;;5069872;28;20924;-82
2023/04/14 08:31:03;;;;;;;11.45;7.15;;;;;;;;;;5067668;28;20428;-81
2023/04/14 08:33:29;;;;;;;13.75;8.57;;;;;;;;;;5067143;28;20446;-81
2023/04/14 08:35:57;;;;;;;14.15;9.07;;;;;;;;;;5065658;28;20433;-81
2023/04/14 08:38:23;;;;;;;18.08;11.60;;;;;;;;;;5076510;28;20427;-82
2023/04/14 08:40:53;;;;;;;19.08;13.32;;;;;;;;;;5064804;28;20925;-81
2023/04/14 08:43:21;;;;;;;19.83;14.63;;;;;;;;;;5066432;28;20428;-82
2023/04/14 08:45:50;;;;;;;13.77;10.32;;;;;;;;;;5066664;28;20417;-81
2023/04/14 08:48:19;;;;;;;13.57;9.90;;;;;;;;;;5068547;28;20423;-80
2023/04/14 08:50:49;;;;;;;13.52;9.60;;;;;;;;;;5070468;28;20454;-82
2023/04/14 08:53:16;;;;;;;12.45;8.27;;;;;;;;;;5074746;28;20429;-81
2023/04/14 08:55:42;;;;;;;9.43;6.63;;;;;;;;;;5071067;28;20423;-79
2023/04/14 08:58:10;;;;;;;12.32;6.93;;;;;;;;;;5070146;28;20417;-80
2023/04/14 09:00:38;;;;;;;11.57;5.47;;;;;;;;;;5067881;28;20437;-80
2023/04/14 09:03:05;;;;;;;8.57;5.57;;;;;;;;;;5071318;28;20427;-81
2023/04/14 09:05:32;;;;;;;8.18;4.65;;;;;;;;;;5069286;28;20430;-81
2023/04/14 09:07:58;;;;;;;7.90;4.55;;;;;;;;;;5069601;28;20428;-80
2023/04/14 09:10:25;;;;;;;8.50;4.85;;;;;;;;;;5073105;28;20416;-81
2023/04/14 09:12:52;;;;;;;7.78;4.82;;;;;;;;;;5067735;28;20431;-81
2023/04/14 09:15:20;;;;;;;9.43;4.78;;;;;;;;;;5065207;28;20420;-81
2023/04/14 09:17:47;;;;;;;9.30;4.10;;;;;;;;;;5066835;28;20508;-79
2023/04/14 09:20:15;;;;;;;8.55;4.30;;;;;;;;;;5065050;28;20429;-81
2023/04/14 09:22:43;;;;;;;7.55;4.13;;;;;;;;;;5063035;28;20439;-80
2023/04/14 09:25:10;;;;;;;9.75;4.43;;;;;;;;;;5071339;28;20419;-79
2023/04/14 09:27:36;;;;;;;7.00;4.50;;;;;;;;;;5065754;28;20432;-80
2023/04/14 09:30:03;;;;;;;8.10;3.60;;;;;;;;;;5067330;28;20438;-80
2023/04/14 09:32:30;;;;;;;8.05;2.95;;;;;;;;;;5064264;28;21335;-78
2023/04/14 09:34:58;;;;;;;4.88;3.00;;;;;;;;;;5070587;28;20416;-79
2023/04/14 09:37:24;;;;;;;4.85;3.22;;;;;;;;;;5070766;28;20424;-79
2023/04/14 09:39:51;;;;;;;6.13;2.90;;;;;;;;;;5066617;28;20415;-78
2023/04/14 09:42:18;;;;;;;6.55;3.30;;;;;;;;;;5071900;28;20944;-78
2023/04/14 09:44:54;;;;;;;7.50;3.50;;;;;;;;;;5069439;28;20419;-81
2023/04/14 09:47:21;;;;;;;6.10;3.50;;;;;;;;;;5064886;28;20432;-79
2023/04/14 09:49:57;;;;;;;5.30;3.20;;;;;;;;;;5068485;28;20430;-80
2023/04/14 09:52:35;;;;;;;4.28;2.50;;;;;;;;;;5062174;28;20481;-80
2023/04/14 09:55:03;;;;;;;4.80;2.55;;;;;;;;;;5069070;28;20785;-80
2023/04/14 09:57:29;;;;;;;6.00;2.20;;;;;;;;;;5069939;28;20414;-80
2023/04/14 09:59:56;;;;;;;5.10;2.03;;;;;;;;;;5060132;28;20475;-80
2023/04/14 10:02:24;;;;;;;5.13;2.10;;;;;;;;;;5070446;28;20431;-80
2023/04/14 10:05:02;;;;;;;4.75;2.08;;;;;;;;;;5068731;28;20439;-81
2023/04/14 10:07:30;;;;;;;4.28;1.77;;;;;;;;;;5067813;28;20429;-80
2023/04/14 10:09:56;;;;;;;6.03;2.27;;;;;;;;;;5068925;28;20791;-80
2023/04/14 10:12:23;;;;;;;5.35;2.30;;;;;;;;;;5068021;28;20431;-82
2023/04/14 10:14:49;;;;;;;5.70;2.00;;;;;;;;;;5066091;28;20416;-82
2023/04/14 10:17:16;;;;;;;8.40;2.30;;;;;;;;;;5066460;28;20458;-80
2023/04/14 10:19:43;;;;;;;6.68;2.00;;;;;;;;;;5061768;28;20435;-82
2023/04/14 10:22:09;;;;;;;4.95;2.30;;;;;;;;;;5068635;28;20423;-80
2023/04/14 10:24:37;;;;;;;4.30;2.20;;;;;;;;;;5066405;28;20797;-80
2023/04/14 10:27:04;;;;;;;6.30;2.60;;;;;;;;;;5069465;28;20416;-80
2023/04/14 10:29:30;;;;;;;6.40;1.90;;;;;;;;;;5068868;28;20458;-82
2023/04/14 10:31:59;;;;;;;5.43;2.40;;;;;;;;;;5066028;28;20423;-81
2023/04/14 10:34:25;;;;;;;7.80;2.60;;;;;;;;;;5068512;28;20418;-81
2023/04/14 10:36:52;;;;;;;4.65;2.20;;;;;;;;;;5067546;28;20450;-80
2023/04/14 10:39:23;;;;;;;4.57;1.92;;;;;;;;;;5070371;28;20911;-82
2023/04/14 10:41:51;;;;;;;4.70;1.80;;;;;;;;;;5069991;28;20515;-82
2023/04/14 10:44:27;;;;;;;3.00;2.05;;;;;;;;;;5067883;28;20425;-82
2023/04/14 10:46:55;;;;;;;3.00;1.83;;;;;;;;;;5066349;28;20429;-82
2023/04/14 10:49:25;;;;;;;5.47;2.13;;;;;;;;;;5075532;28;20431;-81
2023/04/14 10:51:51;;;;;;;6.70;2.28;;;;;;;;;;5067269;28;20426;-81
2023/04/14 10:54:18;;;;;;;8.57;2.53;;;;;;;;;;5072367;28;20416;-82
2023/04/14 10:56:59;;;;;;;3.40;1.40;;;;;;;;;;5070077;28;20436;-82
2023/04/14 10:59:34;;;;;;;3.40;1.60;;;;;;;;;;5063560;28;20440;-81
2023/04/14 11:02:00;;;;;;;3.50;1.50;;;;;;;;;;5071269;28;20497;-82
2023/04/14 11:04:27;;;;;;;4.47;2.00;;;;;;;;;;5069923;28;20436;-82
2023/04/14 11:06:55;;;;;;;6.10;1.90;;;;;;;;;;5069116;28;20437;-82
2023/04/14 11:09:33;;;;;;;4.90;1.67;;;;;;;;;;5065960;28;20429;-82
2023/04/14 11:12:03;;;;;;;4.43;1.60;;;;;;;;;;5064304;28;20427;-81
2023/04/14 11:14:32;;;;;;;7.32;1.73;;;;;;;;;;5067830;28;20435;-81
2023/04/14 11:16:59;;;;;;;4.55;1.50;;;;;;;;;;5069390;28;20438;-81
2023/04/14 11:19:26;;;;;;;5.50;2.00;;;;;;;;;;5071840;28;20533;-81
2023/04/14 11:21:52;;;;;;;4.35;1.83;;;;;;;;;;5061600;28;20428;-81
2023/04/14 11:24:19;;;;;;;5.13;1.70;;;;;;;;;;5063945;28;20943;-82
2023/04/14 11:26:46;;;;;;;4.85;1.55;;;;;;;;;;5069490;28;20415;-81
2023/04/14 11:29:12;;;;;;;4.90;1.70;;;;;;;;;;5065314;28;20789;-81
2023/04/14 11:31:40;;;;;;;4.22;2.10;;;;;;;;;;5063182;28;20430;-81
2023/04/14 11:34:06;;;;;;;6.20;1.90;;;;;;;;;;5068012;28;20852;-81
2023/04/14 11:36:35;;;;;;;5.05;1.90;;;;;;;;;;5067630;28;20424;-80
2023/04/14 11:39:01;;;;;;;4.90;1.50;;;;;;;;;;5067576;28;20447;-81
2023/04/14 11:41:27;;;;;;;6.28;2.45;;;;;;;;;;5067010;28;20490;-81
2023/04/14 11:43:54;;;;;;;3.33;2.00;;;;;;;;;;5066911;28;20423;-81
2023/04/14 11:46:21;;;;;;;5.90;1.90;;;;;;;;;;5068110;28;20430;-82
2023/04/14 11:48:53;;;;;;;6.37;2.33;;;;;;;;;;5065871;28;20477;-81
2023/04/14 11:51:20;;;;;;;4.05;1.42;;;;;;;;;;5065899;28;20433;-82
2023/04/14 11:53:46;;;;;;;5.25;1.85;;;;;;;;;;5064687;28;20515;-82
2023/04/14 11:56:14;;;;;;;7.25;1.70;;;;;;;;;;5067494;28;20418;-82
2023/04/14 11:58:40;;;;;;;5.80;2.20;;;;;;;;;;5067554;28;20445;-82
2023/04/14 12:01:06;;;;;;;4.53;1.70;;;;;;;;;;5066091;28;20430;-82
2023/04/14 12:03:34;;;;;;;5.20;2.10;;;;;;;;;;5066959;28;20433;-81
2023/04/14 12:06:02;;;;;;;4.63;1.70;;;;;;;;;;5069794;28;20453;-79
2023/04/14 12:08:29;;;;;;;4.80;2.00;;;;;;;;;;5064803;28;20459;-80
2023/04/14 12:10:56;;;;;;;5.05;2.42;;;;;;;;;;5065520;28;20427;-82
2023/04/14 12:13:23;;;;;;;5.68;2.30;;;;;;;;;;5064509;28;20504;-81
2023/04/14 12:15:49;;;;;;;6.75;2.20;;;;;;;;;;5064414;28;20428;-83
2023/04/14 12:18:16;;;;;;;5.30;2.20;;;;;;;;;;5068386;28;20427;-82
2023/04/14 12:20:42;;;;;;;6.30;1.85;;;;;;;;;;5070770;28;20427;-80
2023/04/14 12:23:10;;;;;;;5.38;2.08;;;;;;;;;;5069428;28;20425;-80
2023/04/14 12:25:37;;;;;;;5.57;2.00;;;;;;;;;;5065965;28;20416;-80
2023/04/14 12:28:05;;;;;;;7.68;2.47;;;;;;;;;;5070301;28;20913;-80
2023/04/14 12:30:31;;;;;;;5.32;2.00;;;;;;;;;;5070533;28;20416;-80
2023/04/14 12:32:58;;;;;;;4.13;1.73;;;;;;;;;;5068219;28;20475;-80
2023/04/14 12:35:24;;;;;;;5.63;2.10;;;;;;;;;;5069063;28;20431;-80
2023/04/14 12:37:51;;;;;;;4.70;1.73;;;;;;;;;;5066768;28;20943;-82
2023/04/14 12:40:36;;;;;;;4.15;1.88;;;;;;;;;;5066034;28;20926;-82
2023/04/14 12:43:02;;;;;;;5.63;2.10;;;;;;;;;;5069442;28;20461;-82
2023/04/14 12:45:39;;;;;;;7.03;2.13;;;;;;;;;;5065627;28;20958;-82
2023/04/14 12:48:05;;;;;;;6.13;2.00;;;;;;;;;;5072533;28;20436;-81
2023/04/14 12:50:32;;;;;;;5.88;2.20;;;;;;;;;;5071436;28;20423;-82
2023/04/14 12:53:00;;;;;;;3.90;2.05;;;;;;;;;;5072761;28;20421;-82
2023/04/14 12:55:28;;;;;;;7.40;2.45;;;;;;;;;;5073774;28;20477;-82
2023/04/14 12:57:55;;;;;;;5.80;2.22;;;;;;;;;;5068551;28;20481;-82
2023/04/14 13:00:21;;;;;;;5.95;2.22;;;;;;;;;;5071532;28;20423;-82
2023/04/14 13:02:48;;;;;;;8.02;2.50;;;;;;;;;;5069983;28;20428;-83
2023/04/14 13:05:14;;;;;;;4.00;2.53;;;;;;;;;;5072140;28;20422;-79
2023/04/14 13:07:41;;;;;;;7.95;2.50;;;;;;;;;;5066861;28;20427;-81
2023/04/14 13:10:07;;;;;;;7.25;3.00;;;;;;;;;;5069283;28;20767;-81
2023/04/14 13:12:35;;;;;;;6.63;2.60;;;;;;;;;;5071814;28;20434;-80
2023/04/14 13:15:02;;;;;;;7.90;2.60;;;;;;;;;;5075456;28;20943;-82
2023/04/14 13:17:28;;;;;;;5.80;2.42;;;;;;;;;;5073870;28;20459;-82
2023/04/14 13:19:55;;;;;;;7.80;2.60;;;;;;;;;;5072176;28;20482;-80
2023/04/14 13:22:21;;;;;;;5.15;2.80;;;;;;;;;;5068698;28;20972;-81
2023/04/14 13:24:50;;;;;;;5.53;2.57;;;;;;;;;;5069250;28;20424;-81
2023/04/14 13:27:17;;;;;;;4.90;2.80;;;;;;;;;;5074817;28;20432;-81
2023/04/14 13:29:46;;;;;;;7.57;3.93;;;;;;;;;;5071822;28;20411;-81
2023/04/14 13:32:12;;;;;;;6.63;2.67;;;;;;;;;;5073473;28;20416;-81
2023/04/14 13:34:40;;;;;;;5.78;3.10;;;;;;;;;;5069606;28;20434;-81
2023/04/14 13:37:08;;;;;;;6.18;2.70;;;;;;;;;;5068747;28;20787;-81
2023/04/14 13:39:34;;;;;;;6.55;2.40;;;;;;;;;;5068697;28;20428;-81
2023/04/14 13:42:01;;;;;;;9.20;3.00;;;;;;;;;;5073713;28;20419;-81
2023/04/14 13:44:27;;;;;;;6.13;2.40;;;;;;;;;;5073006;28;20436;-81
2023/04/14 13:46:55;;;;;;;4.80;2.38;;;;;;;;;;5074177;28;20427;-80
2023/04/14 13:49:23;;;;;;;4.10;2.80;;;;;;;;;;5070370;28;20427;-81
2023/04/14 13:51:49;;;;;;;5.90;2.40;;;;;;;;;;5073539;28;21043;-81
2023/04/14 13:54:16;;;;;;;5.70;2.75;;;;;;;;;;5073190;28;20420;-80
2023/04/14 13:56:42;;;;;;;5.82;2.53;;;;;;;;;;5068116;28;21073;-80
2023/04/14 13:59:08;;;;;;;7.80;2.80;;;;;;;;;;5073040;28;20816;-81
2023/04/14 14:01:35;;;;;;;6.68;2.45;;;;;;;;;;5068403;28;20424;-82
2023/04/14 14:04:02;;;;;;;7.00;2.92;;;;;;;;;;5072730;28;20423;-82
2023/04/14 14:06:30;;;;;;;7.25;2.90;;;;;;;;;;5069848;28;20450;-82
2023/04/14 14:09:01;;;;;;;5.80;2.60;;;;;;;;;;5069504;28;20488;-82
2023/04/14 14:11:27;;;;;;;6.20;2.85;;;;;;;;;;5071135;28;20446;-82
2023/04/14 14:13:54;;;;;;;5.93;2.65;;;;;;;;;;5068809;28;20436;-81
2023/04/14 14:16:20;;;;;;;7.07;2.85;;;;;;;;;;5070964;28;20440;-82
2023/04/14 14:18:47;;;;;;;4.57;2.60;;;;;;;;;;5066955;28;20520;-82
2023/04/14 14:21:15;;;;;;;6.37;2.87;;;;;;;;;;5053218;28;20971;-82
2023/04/14 14:23:41;;;;;;;5.65;3.10;;;;;;;;;;5071464;28;20944;-82
2023/04/14 14:26:10;;;;;;;5.40;2.90;;;;;;;;;;5066428;28;20552;-82
2023/04/14 14:28:36;;;;;;;7.45;3.30;;;;;;;;;;5069640;28;20670;-82
2023/04/14 14:31:03;;;;;;;6.53;3.30;;;;;;;;;;5068035;28;20425;-82
2023/04/14 14:33:29;;;;;;;9.20;4.00;;;;;;;;;;5068025;28;20973;-80